createdAt,value
2022-10-05T00:02:24.793Z,74.79
2022-10-05T00:04:57.126Z,75.25
2022-10-05T00:07:24.594Z,75.02
2022-10-05T00:09:58.951Z,74.89
2022-10-05T00:12:28.408Z,75.15
2022-10-05T00:15:01.443Z,75.24
2022-10-05T00:17:30.520Z,74.78
2022-10-05T00:19:57.053Z,75.13
2022-10-05T00:22:29.851Z,74.79
2022-10-05T00:24:59.624Z,75.03
2022-10-05T00:27:34.093Z,74.89
2022-10-05T00:30:08.028Z,74.93
2022-10-05T00:32:34.544Z,74.89
2022-10-05T00:35:01.155Z,74.63
2022-10-05T00:37:27.628Z,75.09
2022-10-05T00:39:54.213Z,75.06
2022-10-05T00:42:55.815Z,75.37
2022-10-05T00:45:29.436Z,74.92
2022-10-05T00:48:27.558Z,75.23
2022-10-05T00:51:17.246Z,75.29
2022-10-05T00:54:15.997Z,75.15
2022-10-05T00:57:22.927Z,75.63
2022-10-05T00:59:58.817Z,75.48
2022-10-05T01:02:36.911Z,75.39
2022-10-05T01:05:27.655Z,75.18
2022-10-05T01:08:19.246Z,74.94
2022-10-05T01:11:03.030Z,75.21
2022-10-05T01:13:55.184Z,75.88
2022-10-05T01:16:38.794Z,75.33
2022-10-05T01:19:50.808Z,75.96
2022-10-05T01:22:57.223Z,75.36
2022-10-05T01:25:38.238Z,75.33
2022-10-05T01:28:28.361Z,75.78
2022-10-05T01:31:11.815Z,75.62
2022-10-05T01:34:11.979Z,75.77
2022-10-05T01:36:52.623Z,75.79
2022-10-05T01:39:29.788Z,76.14
2022-10-05T01:42:08.471Z,76.11
2022-10-05T01:44:48.884Z,76.23
2022-10-05T01:47:25.750Z,75.97
2022-10-05T01:50:02.376Z,76.10
2022-10-05T01:52:43.932Z,76.22
2022-10-05T01:55:26.373Z,76.28
2022-10-05T01:58:07.725Z,76.35
2022-10-05T02:00:45.793Z,76.92
2022-10-05T02:03:24.639Z,76.63
2022-10-05T02:06:02.079Z,76.91
2022-10-05T02:08:44.331Z,77.03
2022-10-05T02:11:17.344Z,76.24
2022-10-05T02:13:58.242Z,76.35
2022-10-05T02:16:37.468Z,76.49
2022-10-05T02:19:26.930Z,77.45
2022-10-05T02:22:02.063Z,77.11
2022-10-05T02:24:59.423Z,76.48
2022-10-05T02:27:34.781Z,77.58
2022-10-05T02:30:05.087Z,76.80
2022-10-05T02:32:41.133Z,77.33
2022-10-05T02:35:14.655Z,77.22
2022-10-05T02:38:06.942Z,78.63
2022-10-05T02:41:13.027Z,78.08
2022-10-05T02:44:29.700Z,77.95
2022-10-05T02:47:13.166Z,77.24
2022-10-05T02:49:52.644Z,77.74
2022-10-05T02:52:27.431Z,77.58
2022-10-05T02:55:10.648Z,77.90
2022-10-05T02:57:49.033Z,78.07
2022-10-05T03:00:18.149Z,77.90
2022-10-05T03:02:56.350Z,78.48
2022-10-05T03:05:30.845Z,77.69
2022-10-05T03:08:15.309Z,78.57
2022-10-05T03:11:15.515Z,78.87
2022-10-05T03:14:05.674Z,77.97
2022-10-05T03:17:12.782Z,78.07
2022-10-05T03:19:41.751Z,78.04
2022-10-05T03:22:23.255Z,78.15
2022-10-05T03:25:01.163Z,78.19
2022-10-05T03:27:44.779Z,78.22
2022-10-05T03:30:18.924Z,78.23
2022-10-05T03:32:58.017Z,78.23
2022-10-05T03:35:54.119Z,78.19
2022-10-05T03:38:34.940Z,78.16
2022-10-05T03:41:26.701Z,78.21
2022-10-05T03:44:08.824Z,78.15
2022-10-05T03:46:58.173Z,78.28
2022-10-05T03:49:55.249Z,78.24
2022-10-05T03:52:34.648Z,78.21
2022-10-05T03:55:30.328Z,78.46
2022-10-05T03:58:03.105Z,78.15
2022-10-05T04:00:32.185Z,78.15
2022-10-05T04:03:12.413Z,78.04
2022-10-05T04:05:51.916Z,78.04
2022-10-05T04:08:22.291Z,78.04
2022-10-05T04:11:03.486Z,77.76
2022-10-05T04:13:44.259Z,77.81
2022-10-05T04:16:19.589Z,77.68
2022-10-05T04:18:55.037Z,77.55
2022-10-05T04:21:26.571Z,77.44
2022-10-05T04:24:00.908Z,77.54
2022-10-05T04:26:37.381Z,77.55
2022-10-05T04:29:22.524Z,77.20
2022-10-05T04:32:37.722Z,77.25
2022-10-05T04:35:32.055Z,77.39
2022-10-05T04:38:26.249Z,77.09
2022-10-05T04:41:25.701Z,76.98
2022-10-05T04:44:35.905Z,76.95
2022-10-05T04:47:35.990Z,76.89
2022-10-05T04:50:27.313Z,76.61
2022-10-05T04:53:03.888Z,76.80
2022-10-05T04:55:51.744Z,76.66
2022-10-05T04:58:30.688Z,76.64
2022-10-05T05:01:30.924Z,76.61
2022-10-05T05:04:03.208Z,76.67
2022-10-05T05:06:51.379Z,76.36
2022-10-05T05:09:52.649Z,76.33
2022-10-05T05:12:42.363Z,76.61
2022-10-05T05:15:29.183Z,76.04
2022-10-05T05:18:07.058Z,76.31
2022-10-05T05:20:48.817Z,76.04
2022-10-05T05:23:38.936Z,75.38
2022-10-05T05:26:40.100Z,75.80
2022-10-05T05:29:37.373Z,76.02
2022-10-05T05:32:15.940Z,75.81
2022-10-05T05:35:20.541Z,75.79
2022-10-05T05:37:58.113Z,75.75
2022-10-05T05:40:33.926Z,76.02
2022-10-05T05:43:20.489Z,76.17
2022-10-05T05:45:55.696Z,75.64
2022-10-05T05:48:36.825Z,76.04
2022-10-05T05:51:35.954Z,76.09
2022-10-05T05:54:33.781Z,76.06
2022-10-05T05:57:15.181Z,76.11
2022-10-05T05:59:52.969Z,75.96
2022-10-05T06:02:26.494Z,76.11
2022-10-05T06:05:01.582Z,76.49
2022-10-05T06:07:30.972Z,76.32
2022-10-05T06:10:29.352Z,76.25
2022-10-05T06:13:01.873Z,76.54
2022-10-05T06:15:38.882Z,76.23
2022-10-05T06:18:12.071Z,76.62
2022-10-05T06:20:41.250Z,76.46
2022-10-05T06:23:17.010Z,76.64
2022-10-05T06:25:43.596Z,76.48
2022-10-05T06:28:12.379Z,76.59
2022-10-05T06:30:52.200Z,76.48
2022-10-05T06:33:21.305Z,76.68
2022-10-05T06:36:15.068Z,76.47
2022-10-05T06:39:37.614Z,76.71
2022-10-05T06:42:59.128Z,76.67
2022-10-05T06:46:02.888Z,76.82
2022-10-05T06:49:20.683Z,76.76
2022-10-05T06:51:55.073Z,76.69
2022-10-05T06:54:35.105Z,76.73
2022-10-05T06:57:36.623Z,76.80
2022-10-05T07:00:16.001Z,76.86
2022-10-05T07:02:52.873Z,76.63
2022-10-05T07:05:58.395Z,76.73
2022-10-05T07:08:33.866Z,76.86
2022-10-05T07:11:59.652Z,76.81
2022-10-05T07:15:13.105Z,76.83
2022-10-05T07:18:07.130Z,76.81
2022-10-05T07:20:49.036Z,76.94
2022-10-05T07:23:50.967Z,76.88
2022-10-05T07:26:51.156Z,76.80
2022-10-05T07:29:23.475Z,76.83
2022-10-05T07:32:09.562Z,76.90
2022-10-05T07:34:58.664Z,76.89
2022-10-05T07:37:56.991Z,76.89
2022-10-05T07:40:38.131Z,76.78
2022-10-05T07:43:35.915Z,77.00
2022-10-05T07:46:19.639Z,76.60
2022-10-05T07:49:03.407Z,76.68
2022-10-05T07:51:42.180Z,76.64
2022-10-05T07:54:21.593Z,76.76
2022-10-05T07:57:03.162Z,76.58
2022-10-05T07:59:43.973Z,76.41
2022-10-05T08:02:28.547Z,76.25
2022-10-05T08:05:09.362Z,76.70
2022-10-05T08:07:37.417Z,76.25
2022-10-05T08:10:21.841Z,76.41
2022-10-05T08:13:06.497Z,76.36
2022-10-05T08:15:48.379Z,76.36
2022-10-05T08:18:25.486Z,76.21
2022-10-05T08:20:56.886Z,76.26
2022-10-05T08:23:41.663Z,76.12
2022-10-05T08:26:33.834Z,75.92
2022-10-05T08:29:34.448Z,76.27
2022-10-05T08:32:05.633Z,76.31
2022-10-05T08:34:45.959Z,75.93
2022-10-05T08:37:27.335Z,75.67
2022-10-05T08:40:18.577Z,75.11
2022-10-05T08:43:17.595Z,75.69
2022-10-05T08:46:06.142Z,75.35
2022-10-05T08:49:14.014Z,75.64
2022-10-05T08:52:29.209Z,75.74
2022-10-05T08:55:37.621Z,75.26
2022-10-05T08:58:44.686Z,74.95
2022-10-05T09:01:29.520Z,75.52
2022-10-05T09:04:28.230Z,74.55
2022-10-05T09:07:19.303Z,74.83
2022-10-05T09:10:19.986Z,74.72
2022-10-05T09:13:38.595Z,74.28
2022-10-05T09:16:29.057Z,74.49
2022-10-05T09:19:27.653Z,74.75
2022-10-05T09:22:55.658Z,74.61
2022-10-05T09:25:43.795Z,74.22
2022-10-05T09:28:24.114Z,74.35
2022-10-05T09:30:53.215Z,73.99
2022-10-05T09:33:45.815Z,73.58
2022-10-05T09:36:32.383Z,73.81
2022-10-05T09:39:34.853Z,73.78
2022-10-05T09:42:37.682Z,72.95
2022-10-05T09:45:36.702Z,73.49
2022-10-05T09:48:16.354Z,73.19
2022-10-05T09:51:04.513Z,73.31
2022-10-05T09:54:12.641Z,72.86
2022-10-05T09:57:20.660Z,73.41
2022-10-05T10:00:50.126Z,73.06
2022-10-05T10:04:15.921Z,72.81
2022-10-05T10:07:10.958Z,72.51
2022-10-05T10:10:07.866Z,73.06
2022-10-05T10:12:47.511Z,72.50
2022-10-05T10:15:38.479Z,72.84
2022-10-05T10:18:42.818Z,72.93
2022-10-05T10:21:39.454Z,72.81
2022-10-05T10:24:45.019Z,72.23
2022-10-05T10:27:48.000Z,72.46
2022-10-05T10:30:38.961Z,72.78
2022-10-05T10:33:33.336Z,72.38
2022-10-05T10:36:11.589Z,72.23
2022-10-05T10:38:58.912Z,71.61
2022-10-05T10:41:42.723Z,72.03
2022-10-05T10:45:02.595Z,71.95
2022-10-05T10:47:47.212Z,71.97
2022-10-05T10:50:36.993Z,71.72
2022-10-05T10:53:41.769Z,71.77
2022-10-05T10:56:39.400Z,71.50
2022-10-05T10:59:30.735Z,71.71
2022-10-05T11:02:23.411Z,71.22
2022-10-05T11:05:34.764Z,71.03
2022-10-05T11:08:46.552Z,71.56
2022-10-05T11:11:51.321Z,71.55
2022-10-05T11:14:43.015Z,71.55
2022-10-05T11:17:31.691Z,71.58
2022-10-05T11:20:29.092Z,71.35
2022-10-05T11:23:04.845Z,71.45
2022-10-05T11:26:03.081Z,71.27
2022-10-05T11:28:41.830Z,70.34
